Time;durP1;ratioP1;P1;durP2;ratioP2;P2;SDS_P1;SDS_P2;PMS_P1;PMS_P2;Temp;Humidity;BMP_temperature;BMP_pressure;BME280_temperature;BME280_humidity;BME280_pressure;Samples;Min_cycle;Max_cycle;Signal;HPM_P1;HPM_P2
2021/11/15 00:02:14;;;;;;;15.20;8.85;;;;;;;15.48;74.08;101509.72;5092148;28;20675;-66
2021/11/15 00:04:42;;;;;;;13.60;7.78;;;;;;;15.47;74.24;101520.34;5087560;28;20127;-66
2021/11/15 00:07:11;;;;;;;16.77;8.88;;;;;;;15.49;74.17;101514.13;5087785;28;20182;-66
2021/11/15 00:09:39;;;;;;;12.23;8.18;;;;;;;15.52;74.13;101519.53;5088823;28;20430;-66
2021/11/15 00:12:08;;;;;;;14.07;8.82;;;;;;;15.52;74.09;101514.19;5087891;28;20079;-66
2021/11/15 00:14:36;;;;;;;15.25;8.60;;;;;;;15.52;74.06;101514.19;5087725;28;20184;-66
2021/11/15 00:17:06;;;;;;;14.13;9.00;;;;;;;15.53;74.20;101521.31;5088390;28;20047;-66
2021/11/15 00:19:33;;;;;;;16.77;9.65;;;;;;;15.54;74.15;101519.53;5086617;28;20064;-66
2021/11/15 00:22:03;;;;;;;13.80;8.05;;;;;;;15.55;74.38;101513.34;5088290;28;20097;-66
2021/11/15 00:24:32;;;;;;;12.63;8.57;;;;;;;15.50;74.29;101513.25;5092155;28;20040;-67
2021/11/15 00:27:01;;;;;;;13.05;7.63;;;;;;;15.47;74.42;101505.25;5092023;28;20047;-66
2021/11/15 00:29:29;;;;;;;16.38;8.55;;;;;;;15.48;74.41;101507.06;5090726;28;20044;-67
2021/11/15 00:31:57;;;;;;;13.80;7.80;;;;;;;15.49;74.40;101508.81;5091892;28;20569;-66
2021/11/15 00:34:25;;;;;;;12.70;7.82;;;;;;;15.48;74.46;101503.50;5090510;28;20433;-66
2021/11/15 00:36:52;;;;;;;12.30;7.95;;;;;;;15.47;74.35;101507.91;5092238;28;20044;-66
2021/11/15 00:39:20;;;;;;;14.77;7.18;;;;;;;15.42;74.58;101511.44;5091971;28;20101;-67
2021/11/15 00:41:49;;;;;;;15.63;8.45;;;;;;;15.34;75.17;101498.06;5091896;28;20097;-67
2021/11/15 00:44:17;;;;;;;18.95;8.18;;;;;;;15.35;75.41;101499.84;5089173;28;20055;-66
2021/11/15 00:46:45;;;;;;;15.23;10.20;;;;;;;15.38;75.30;101497.19;5093539;28;20037;-66
2021/11/15 00:49:13;;;;;;;15.57;9.27;;;;;;;15.46;75.49;101503.47;5091554;28;20047;-66
2021/11/15 00:51:41;;;;;;;12.93;7.93;;;;;;;15.48;75.30;101500.84;5091099;28;20047;-66
2021/11/15 00:54:09;;;;;;;14.57;9.07;;;;;;;15.49;75.06;101491.97;5092395;28;20052;-67
2021/11/15 00:56:37;;;;;;;13.77;8.40;;;;;;;15.50;75.13;101494.63;5091950;28;20048;-67
2021/11/15 00:59:06;;;;;;;16.48;8.40;;;;;;;15.49;75.21;101498.16;5089866;28;20070;-66
2021/11/15 01:01:34;;;;;;;16.75;9.30;;;;;;;15.45;75.42;101495.47;5090194;28;20039;-66
2021/11/15 01:04:01;;;;;;;13.32;6.75;;;;;;;15.35;76.41;101501.63;5073724;28;20122;-66
2021/11/15 01:06:29;;;;;;;14.63;8.27;;;;;;;15.32;77.54;101494.50;5091521;28;20068;-67
2021/11/15 01:08:57;;;;;;;17.25;9.25;;;;;;;15.37;77.39;101494.50;5091930;28;20040;-66
2021/11/15 01:11:25;;;;;;;15.25;8.98;;;;;;;15.41;77.01;101494.56;5090552;28;20040;-67
2021/11/15 01:13:53;;;;;;;11.55;7.07;;;;;;;15.43;76.79;101491.91;5092260;28;20044;-67
2021/11/15 01:16:22;;;;;;;15.20;8.00;;;;;;;15.41;77.04;101502.56;5091476;28;20075;-67
2021/11/15 01:18:50;;;;;;;16.35;8.20;;;;;;;15.36;78.06;101490.97;5091028;28;20044;-67
2021/11/15 01:21:24;;;;;;;12.95;8.65;;;;;;;15.41;78.32;101493.69;5090666;28;20086;-67
2021/11/15 01:23:51;;;;;;;15.20;8.63;;;;;;;15.45;78.19;101507.00;5091503;28;20128;-67
2021/11/15 01:26:19;;;;;;;14.48;8.23;;;;;;;15.48;77.84;101499.06;5091501;28;20098;-67
2021/11/15 01:28:47;;;;;;;14.50;8.60;;;;;;;15.52;77.52;101497.31;5090038;28;20578;-67
2021/11/15 01:31:15;;;;;;;13.27;7.93;;;;;;;15.53;77.20;101499.13;5090558;28;20036;-66
2021/11/15 01:33:45;;;;;;;16.60;8.43;;;;;;;15.57;76.99;101497.34;5089098;28;20048;-67
2021/11/15 01:36:13;;;;;;;13.88;7.95;;;;;;;15.58;76.94;101493.81;5091315;28;20667;-66
2021/11/15 01:38:41;;;;;;;14.05;8.15;;;;;;;15.58;76.91;101497.38;5091676;28;20032;-67
2021/11/15 01:41:10;;;;;;;13.18;7.40;;;;;;;15.58;76.72;101496.47;5091825;28;20089;-67
2021/11/15 01:43:39;;;;;;;11.75;8.00;;;;;;;15.59;76.60;101503.59;5096437;28;20048;-67
2021/11/15 01:46:07;;;;;;;12.68;7.88;;;;;;;15.58;76.60;101496.47;5078731;28;20048;-66
2021/11/15 01:48:34;;;;;;;17.40;8.32;;;;;;;15.58;76.71;101491.16;5090400;28;20039;-66
2021/11/15 01:51:04;;;;;;;14.70;8.00;;;;;;;15.59;76.72;101488.50;5090269;28;20085;-66
2021/11/15 01:53:32;;;;;;;15.13;8.75;;;;;;;15.55;76.93;101484.06;5090055;28;20405;-66
2021/11/15 01:56:00;;;;;;;13.63;7.03;;;;;;;15.48;77.14;101490.19;5091122;28;20040;-66
2021/11/15 01:58:28;;;;;;;11.23;7.38;;;;;;;15.42;77.62;101485.72;5090360;28;20040;-66
2021/11/15 02:00:59;;;;;;;14.07;8.90;;;;;;;15.45;77.94;101485.72;5072094;28;20094;-66
2021/11/15 02:03:29;;;;;;;13.82;8.57;;;;;;;15.48;78.08;101487.53;5088774;28;20051;-67
2021/11/15 02:05:58;;;;;;;14.38;8.52;;;;;;;15.51;78.21;101480.44;5089796;28;20060;-66
2021/11/15 02:08:27;;;;;;;16.70;8.27;;;;;;;15.58;78.28;101485.84;5090705;28;20047;-66
2021/11/15 02:10:55;;;;;;;16.17;8.63;;;;;;;15.62;78.59;101483.19;5089263;28;20036;-67
2021/11/15 02:13:24;;;;;;;11.55;8.05;;;;;;;15.67;78.46;101473.50;5090594;28;20459;-67
2021/11/15 02:15:53;;;;;;;14.98;9.43;;;;;;;15.69;78.56;101466.38;5090437;28;20071;-67
2021/11/15 02:18:22;;;;;;;13.23;7.55;;;;;;;15.72;78.46;101463.75;5088974;28;20553;-66
2021/11/15 02:20:53;;;;;;;13.57;8.23;;;;;;;15.73;78.30;101464.66;5090612;28;20036;-66
2021/11/15 02:23:22;;;;;;;15.55;8.13;;;;;;;15.75;78.23;101473.53;5089723;28;20502;-67
2021/11/15 02:25:52;;;;;;;14.50;7.63;;;;;;;15.78;78.27;101469.13;5090620;28;20040;-66
2021/11/15 02:28:24;;;;;;;12.02;7.32;;;;;;;15.81;78.22;101469.16;5088992;28;20032;-66
2021/11/15 02:30:52;;;;;;;14.05;8.70;;;;;;;15.79;78.14;101470.00;5089495;28;20032;-67
2021/11/15 02:33:20;;;;;;;13.77;8.30;;;;;;;15.80;78.13;101461.16;5092431;28;20049;-67
2021/11/15 02:35:48;;;;;;;16.40;7.85;;;;;;;15.82;78.07;101456.69;5081269;28;20097;-67
2021/11/15 02:38:17;;;;;;;12.32;7.22;;;;;;;15.83;78.13;101461.13;5088540;28;20041;-68
2021/11/15 02:40:45;;;;;;;14.00;8.13;;;;;;;15.83;78.08;101456.72;5090328;28;20051;-67
2021/11/15 02:43:13;;;;;;;12.27;8.05;;;;;;;15.87;78.20;101457.63;5089225;28;20056;-66
2021/11/15 02:45:41;;;;;;;13.50;7.80;;;;;;;15.89;78.12;101461.16;5090003;28;20040;-66
2021/11/15 02:48:09;;;;;;;16.88;8.88;;;;;;;15.89;78.26;101462.06;5089290;28;20105;-67
2021/11/15 02:50:37;;;;;;;13.15;7.78;;;;;;;15.90;78.33;101455.84;5089939;28;20123;-66
2021/11/15 02:53:08;;;;;;;13.23;8.30;;;;;;;15.93;78.47;101453.22;5090029;28;20499;-66
2021/11/15 02:55:38;;;;;;;12.38;7.28;;;;;;;15.94;78.26;101455.00;5088945;28;22241;-66
2021/11/15 02:58:09;;;;;;;13.55;8.40;;;;;;;15.95;78.41;101454.09;5105033;28;20060;-67
2021/11/15 03:00:41;;;;;;;13.73;8.15;;;;;;;15.97;78.49;101459.44;5104084;28;20079;-67
2021/11/15 03:03:09;;;;;;;12.10;8.27;;;;;;;15.99;78.64;101456.78;5088016;28;20054;-66
2021/11/15 03:05:39;;;;;;;12.57;7.55;;;;;;;16.00;78.56;101450.59;5087865;28;20047;-67
2021/11/15 03:08:09;;;;;;;13.55;8.65;;;;;;;16.02;78.71;101451.47;5086590;28;20048;-67
2021/11/15 03:10:39;;;;;;;15.77;8.15;;;;;;;16.05;78.71;101459.47;5103670;28;20044;-67
2021/11/15 03:13:09;;;;;;;11.70;7.30;;;;;;;16.06;78.88;101466.59;5088904;28;20400;-66
2021/11/15 03:15:42;;;;;;;12.00;7.50;;;;;;;16.08;78.88;101462.19;5089286;28;20051;-66
2021/11/15 03:18:12;;;;;;;12.43;7.80;;;;;;;16.07;78.87;101457.72;5087620;28;20446;-66
2021/11/15 03:20:42;;;;;;;13.77;7.45;;;;;;;16.03;78.73;101453.25;5088037;28;20127;-66
2021/11/15 03:23:13;;;;;;;13.98;8.02;;;;;;;15.99;78.72;101449.69;5087356;28;20047;-66
2021/11/15 03:25:44;;;;;;;15.45;7.80;;;;;;;15.95;78.98;101455.88;5089274;28;20125;-66
2021/11/15 03:28:13;;;;;;;17.35;8.38;;;;;;;15.92;79.21;101447.88;5088166;28;20117;-67
2021/11/15 03:30:42;;;;;;;15.23;7.63;;;;;;;15.89;79.83;101456.75;5089597;28;20495;-66
2021/11/15 03:33:12;;;;;;;16.05;7.50;;;;;;;15.96;80.05;101447.00;5099643;28;20083;-66
2021/11/15 03:35:40;;;;;;;13.65;7.28;;;;;;;15.87;80.42;101450.53;5088123;28;20104;-66
2021/11/15 03:38:07;;;;;;;15.10;8.05;;;;;;;15.89;80.98;101450.53;5088614;28;20093;-67
2021/11/15 03:40:36;;;;;;;14.32;8.07;;;;;;;15.93;80.77;101447.91;5086404;28;21366;-67
2021/11/15 03:43:07;;;;;;;14.30;8.63;;;;;;;15.97;80.50;101453.22;5086902;28;20054;-67
2021/11/15 03:45:36;;;;;;;13.20;8.07;;;;;;;15.95;80.09;101450.53;5088684;28;20071;-67
2021/11/15 03:48:05;;;;;;;19.58;8.68;;;;;;;15.93;79.95;101453.22;5088228;28;20115;-67
2021/11/15 03:50:33;;;;;;;13.13;7.95;;;;;;;15.93;79.84;101452.34;5088235;28;20051;-66
2021/11/15 03:53:01;;;;;;;13.75;7.28;;;;;;;15.93;79.56;101447.00;5086205;28;20097;-67
2021/11/15 03:55:29;;;;;;;12.20;7.30;;;;;;;15.91;79.64;101454.97;5086592;28;20495;-67
2021/11/15 03:57:57;;;;;;;12.93;7.65;;;;;;;15.92;79.58;101459.44;5087212;28;20060;-67
2021/11/15 04:00:29;;;;;;;13.45;8.23;;;;;;;15.94;79.42;101447.03;5088082;28;20673;-67
2021/11/15 04:03:02;;;;;;;13.13;8.07;;;;;;;15.93;79.48;101452.34;5088543;28;20050;-67
2021/11/15 04:05:34;;;;;;;14.05;7.72;;;;;;;15.91;79.75;101448.75;5088473;28;20045;-66
2021/11/15 04:08:03;;;;;;;15.13;8.20;;;;;;;15.90;79.83;101447.88;5075322;28;20045;-66
2021/11/15 04:10:35;;;;;;;16.05;8.20;;;;;;;15.91;79.95;101449.66;5088290;28;20040;-66
2021/11/15 04:13:06;;;;;;;17.27;8.98;;;;;;;15.93;79.85;101445.25;5087464;28;20044;-66
2021/11/15 04:15:35;;;;;;;16.95;7.63;;;;;;;15.93;79.73;101455.88;5089299;28;20044;-66
2021/11/15 04:18:04;;;;;;;13.35;8.00;;;;;;;15.91;79.54;101452.31;5098729;28;20537;-67
2021/11/15 04:20:32;;;;;;;13.35;7.60;;;;;;;15.90;79.63;101447.88;5084582;28;20040;-67
2021/11/15 04:23:01;;;;;;;11.52;7.47;;;;;;;15.89;79.92;101459.41;5085900;28;20044;-67
2021/11/15 04:25:30;;;;;;;17.48;9.75;;;;;;;15.89;80.32;101455.84;5088501;28;20119;-66
2021/11/15 04:27:58;;;;;;;14.85;8.75;;;;;;;15.91;80.40;101459.41;5088031;28;20506;-67
2021/11/15 04:30:30;;;;;;;13.38;8.40;;;;;;;15.95;80.39;101470.09;5088469;28;20040;-66
2021/11/15 04:33:01;;;;;;;15.15;8.27;;;;;;;15.98;80.38;101461.22;5086185;28;20467;-66
2021/11/15 04:35:30;;;;;;;15.80;8.30;;;;;;;16.00;80.42;101464.81;5086998;28;20052;-67
2021/11/15 04:37:58;;;;;;;14.75;8.35;;;;;;;16.03;80.43;101470.13;5086500;28;20036;-66
2021/11/15 04:40:26;;;;;;;13.55;8.55;;;;;;;16.06;80.34;101469.25;5088537;28;20036;-66
2021/11/15 04:42:54;;;;;;;14.38;8.60;;;;;;;16.05;80.18;101468.38;5088128;28;20558;-67
2021/11/15 04:45:22;;;;;;;18.45;9.55;;;;;;;16.05;80.11;101467.47;5088648;28;20044;-67
2021/11/15 04:47:50;;;;;;;16.08;8.38;;;;;;;16.04;80.13;101463.91;5086789;28;20040;-67
2021/11/15 04:50:20;;;;;;;13.13;7.38;;;;;;;15.99;80.32;101457.69;5087737;28;20044;-67
2021/11/15 04:52:48;;;;;;;13.55;8.00;;;;;;;15.98;80.79;101455.00;5086314;28;20043;-67
2021/11/15 04:55:19;;;;;;;14.27;8.70;;;;;;;16.00;80.97;101454.16;5088588;28;20040;-67
2021/11/15 04:57:47;;;;;;;16.30;7.80;;;;;;;15.99;81.30;101460.34;5088007;28;20114;-67
2021/11/15 05:00:19;;;;;;;15.85;7.63;;;;;;;15.95;81.70;101459.44;5087781;28;20051;-66
2021/11/15 05:02:47;;;;;;;16.38;9.90;;;;;;;15.98;81.76;101460.34;5086277;28;20047;-68
2021/11/15 05:05:16;;;;;;;22.52;11.07;;;;;;;16.01;81.78;101458.59;5086379;28;20135;-66
2021/11/15 05:07:46;;;;;;;15.77;8.88;;;;;;;16.08;81.65;101454.19;5087415;28;20040;-66
2021/11/15 05:10:14;;;;;;;20.58;9.45;;;;;;;16.10;81.47;101455.94;5091511;28;20072;-67
2021/11/15 05:12:42;;;;;;;13.07;7.88;;;;;;;16.12;81.59;101463.97;5091007;28;20499;-67
2021/11/15 05:15:12;;;;;;;18.20;8.57;;;;;;;16.13;81.67;101455.09;5091553;28;20520;-67
2021/11/15 05:17:42;;;;;;;17.23;8.10;;;;;;;16.14;81.77;101464.88;5091892;28;20050;-67
2021/11/15 05:20:11;;;;;;;16.65;9.13;;;;;;;16.18;81.81;101467.53;5090994;28;20101;-67
2021/11/15 05:22:39;;;;;;;19.10;10.30;;;;;;;16.22;81.71;101474.66;5090884;28;20043;-67
2021/11/15 05:25:10;;;;;;;17.58;10.70;;;;;;;16.24;81.63;101472.00;5091578;28;20101;-67
2021/11/15 05:27:39;;;;;;;19.67;10.57;;;;;;;16.26;81.67;101478.22;5091480;28;20050;-66
2021/11/15 05:30:09;;;;;;;15.98;11.15;;;;;;;16.31;81.55;101482.69;5090881;28;20134;-67
2021/11/15 05:32:37;;;;;;;18.48;10.43;;;;;;;16.32;81.44;101483.56;5089860;28;20567;-66
2021/11/15 05:35:06;;;;;;;15.05;9.52;;;;;;;16.37;81.46;101476.47;5091874;28;20044;-67
2021/11/15 05:37:34;;;;;;;14.25;9.45;;;;;;;16.41;81.30;101480.91;5103612;28;20044;-67
2021/11/15 05:40:02;;;;;;;18.83;9.07;;;;;;;16.47;81.36;101482.75;5091164;28;20043;-67
2021/11/15 05:42:31;;;;;;;18.73;9.55;;;;;;;16.51;81.28;101488.09;5091740;28;20127;-67
2021/11/15 05:44:58;;;;;;;15.13;9.18;;;;;;;16.55;81.28;101488.97;5089786;28;20503;-67
2021/11/15 05:47:26;;;;;;;16.35;8.68;;;;;;;16.60;81.48;101500.59;5091249;28;20504;-67
2021/11/15 05:49:54;;;;;;;15.55;8.30;;;;;;;16.63;81.53;101498.81;5077605;28;20052;-67
2021/11/15 05:52:23;;;;;;;17.10;8.77;;;;;;;16.68;81.52;101505.03;5090780;28;20094;-67
2021/11/15 05:54:51;;;;;;;12.85;8.35;;;;;;;16.74;81.62;101499.72;5097790;28;20040;-67
2021/11/15 05:57:20;;;;;;;15.30;8.60;;;;;;;16.80;81.74;101503.31;5071175;28;20051;-67
2021/11/15 05:59:49;;;;;;;16.33;8.57;;;;;;;16.85;81.71;101512.19;5070897;28;20119;-67
2021/11/15 06:02:17;;;;;;;16.08;8.57;;;;;;;16.87;81.79;101513.97;5089400;28;20127;-67
2021/11/15 06:04:44;;;;;;;12.57;8.30;;;;;;;16.95;81.73;101508.63;5091578;28;20044;-67
2021/11/15 06:07:12;;;;;;;16.25;9.23;;;;;;;17.04;81.80;101514.00;5091176;28;20131;-66
2021/11/15 06:09:40;;;;;;;16.73;9.60;;;;;;;17.16;81.79;101510.44;5091412;28;20101;-66
2021/11/15 06:12:08;;;;;;;18.67;10.02;;;;;;;17.26;81.72;101521.16;5088826;28;20048;-67
2021/11/15 06:14:36;;;;;;;17.48;10.82;;;;;;;17.32;81.89;101510.47;5090104;28;20074;-66
2021/11/15 06:17:05;;;;;;;16.02;10.90;;;;;;;17.46;82.01;101518.44;5089132;28;20085;-66
2021/11/15 06:19:33;;;;;;;17.80;10.13;;;;;;;17.56;82.12;101527.34;5090060;28;20032;-67
2021/11/15 06:22:02;;;;;;;14.63;10.55;;;;;;;17.67;82.27;101525.59;5089489;28;20032;-67
2021/11/15 06:24:30;;;;;;;14.57;9.90;;;;;;;17.75;82.22;101523.81;5090701;28;20068;-67
2021/11/15 06:26:57;;;;;;;17.65;8.90;;;;;;;17.79;82.09;101522.91;5087773;28;20458;-67
2021/11/15 06:29:25;;;;;;;15.02;11.30;;;;;;;17.83;82.17;101525.59;5090344;28;20036;-66
2021/11/15 06:31:53;;;;;;;18.30;9.95;;;;;;;17.88;82.24;101521.09;5090113;28;20101;-66
2021/11/15 06:34:22;;;;;;;19.33;10.23;;;;;;;17.93;82.21;101531.78;5089713;28;20048;-67
2021/11/15 06:36:50;;;;;;;29.70;15.85;;;;;;;17.93;82.21;101521.97;5088452;28;20426;-66
2021/11/15 06:39:17;;;;;;;25.15;14.43;;;;;;;17.93;82.20;101526.44;5089828;28;20129;-67
2021/11/15 06:41:46;;;;;;;22.92;13.20;;;;;;;18.01;82.19;101526.41;5089539;28;20044;-67
2021/11/15 06:44:14;;;;;;;18.13;10.85;;;;;;;18.10;82.20;101526.41;5083998;28;20045;-67
2021/11/15 06:46:42;;;;;;;17.05;11.10;;;;;;;18.16;82.18;101521.94;5098718;28;20449;-67
2021/11/15 06:49:09;;;;;;;22.55;11.98;;;;;;;18.26;82.35;101528.13;5089078;28;20522;-67
2021/11/15 06:51:39;;;;;;;18.50;11.32;;;;;;;18.32;82.54;101526.31;5089910;28;20130;-67
2021/11/15 06:54:08;;;;;;;18.38;11.35;;;;;;;18.52;82.74;101518.19;5088651;28;20519;-67
2021/11/15 06:56:36;;;;;;;18.73;10.65;;;;;;;18.81;82.88;101510.06;5088952;28;20044;-66
2021/11/15 06:59:04;;;;;;;16.48;10.38;;;;;;;18.93;82.97;101506.41;5079825;28;20484;-67
2021/11/15 07:01:36;;;;;;;13.50;8.38;;;;;;;18.91;82.46;101511.75;5081576;28;20048;-67
2021/11/15 07:04:04;;;;;;;16.23;8.70;;;;;;;18.88;81.72;101502.88;5085314;28;20043;-67
2021/11/15 07:06:32;;;;;;;14.77;8.27;;;;;;;18.86;80.80;101513.59;5085641;28;20064;-66
2021/11/15 07:09:01;;;;;;;14.95;8.10;;;;;;;18.84;79.97;101510.03;5087376;28;20127;-66
2021/11/15 07:11:29;;;;;;;12.18;7.55;;;;;;;18.79;79.24;101510.97;5087649;28;20530;-66
2021/11/15 07:13:56;;;;;;;12.18;6.93;;;;;;;18.79;78.08;101510.97;5088093;28;20036;-66
2021/11/15 07:16:24;;;;;;;12.38;8.20;;;;;;;18.89;77.69;101508.22;5088257;28;20040;-67
2021/11/15 07:18:53;;;;;;;14.32;7.75;;;;;;;19.11;77.19;101511.63;5087959;28;20044;-66
2021/11/15 07:21:22;;;;;;;9.98;6.40;;;;;;;19.35;76.82;101505.22;5085762;28;20114;-66
2021/11/15 07:23:50;;;;;;;9.10;5.72;;;;;;;19.47;75.46;101499.78;5085843;28;20063;-67
2021/11/15 07:26:21;;;;;;;9.90;6.70;;;;;;;19.48;74.63;101494.41;5087053;28;20610;-67
2021/11/15 07:28:50;;;;;;;10.50;5.68;;;;;;;19.42;73.40;101509.63;5088386;28;20515;-67
2021/11/15 07:31:17;;;;;;;12.07;6.25;;;;;;;19.35;73.19;101510.56;5086050;28;20048;-67
2021/11/15 07:33:45;;;;;;;11.52;6.55;;;;;;;19.32;72.72;101507.91;5088772;28;20114;-66
2021/11/15 07:36:13;;;;;;;11.95;7.28;;;;;;;19.31;72.68;101506.13;5086799;28;20055;-66
2021/11/15 07:38:41;;;;;;;11.55;7.15;;;;;;;19.26;71.87;101513.31;5086880;28;20047;-66
2021/11/15 07:41:09;;;;;;;10.02;6.85;;;;;;;19.27;71.83;101515.97;5088197;28;20117;-66
2021/11/15 07:43:38;;;;;;;13.13;7.03;;;;;;;19.47;72.42;101510.50;5087675;28;20449;-66
2021/11/15 07:46:06;;;;;;;10.55;5.50;;;;;;;19.77;72.26;101515.53;5086102;28;20480;-66
2021/11/15 07:48:34;;;;;;;9.02;5.25;;;;;;;20.00;71.48;101523.34;5086800;28;20089;-66
2021/11/15 07:51:02;;;;;;;10.98;5.97;;;;;;;20.26;71.23;101523.94;5069689;28;20059;-67
2021/11/15 07:53:36;;;;;;;8.40;4.88;;;;;;;20.45;70.60;101524.63;5071925;28;20256;-66
2021/11/15 07:56:04;;;;;;;10.43;6.40;;;;;;;20.63;69.50;101528.88;5082664;28;20040;-66
2021/11/15 07:58:32;;;;;;;8.57;4.72;;;;;;;20.82;68.95;101524.13;5112455;27;20124;-67
2021/11/15 08:01:01;;;;;;;8.35;5.18;;;;;;;20.93;67.19;101528.44;5084363;28;20044;-66
2021/11/15 08:03:29;;;;;;;9.70;4.95;;;;;;;21.01;66.39;101522.94;5084305;28;20097;-67
2021/11/15 08:05:57;;;;;;;7.43;4.38;;;;;;;21.15;65.24;101523.63;5085226;28;20548;-66
2021/11/15 08:08:26;;;;;;;8.80;4.80;;;;;;;21.09;63.77;101524.59;5086666;28;20127;-66
2021/11/15 08:10:54;;;;;;;6.93;4.53;;;;;;;20.87;62.57;101524.97;5084089;28;20127;-66
2021/11/15 08:13:22;;;;;;;8.90;4.60;;;;;;;20.89;63.35;101531.19;5086070;28;20113;-67
2021/11/15 08:15:50;;;;;;;8.02;5.25;;;;;;;20.89;63.26;101528.50;5086660;28;20055;-66
2021/11/15 08:18:19;;;;;;;13.05;4.88;;;;;;;20.84;62.17;101528.56;5084220;28;20044;-66
2021/11/15 08:20:47;;;;;;;8.00;4.60;;;;;;;20.74;61.87;101526.94;5095989;28;20048;-67
2021/11/15 08:23:17;;;;;;;11.40;4.80;;;;;;;20.69;61.99;101526.97;5074015;28;20511;-66
2021/11/15 08:26:19;;;;;;;10.13;4.88;;;;;;;20.64;62.03;101525.28;5102448;28;20044;-66
2021/11/15 08:28:47;;;;;;;7.90;4.60;;;;;;;20.71;62.08;101523.41;5088372;28;20046;-68
2021/11/15 08:31:15;;;;;;;9.55;4.78;;;;;;;20.68;61.95;101527.88;5089579;28;20048;-66
2021/11/15 08:33:44;;;;;;;7.43;4.90;;;;;;;20.64;61.89;101523.47;5088766;28;20115;-66
2021/11/15 08:36:12;;;;;;;8.90;4.45;;;;;;;20.78;62.21;101523.28;5088378;28;20094;-66
2021/11/15 08:38:52;;;;;;;10.65;5.30;;;;;;;20.93;62.39;101525.75;5086673;28;20044;-66
2021/11/15 08:41:22;;;;;;;10.30;5.70;;;;;;;20.94;61.75;101532.00;5087935;28;20051;-66
2021/11/15 08:43:51;;;;;;;11.02;5.30;;;;;;;20.81;60.92;101522.34;5090246;28;20040;-66
2021/11/15 08:46:19;;;;;;;7.32;4.50;;;;;;;20.99;61.24;101525.69;5092183;28;20040;-66
2021/11/15 08:48:49;;;;;;;8.20;4.25;;;;;;;21.35;61.71;101513.47;5099225;28;20508;-66
2021/11/15 08:51:21;;;;;;;6.40;4.35;;;;;;;21.51;60.91;101524.88;5103550;27;20456;-66
2021/11/15 08:53:49;;;;;;;9.30;4.65;;;;;;;21.59;60.78;101514.88;5090470;28;20036;-66
2021/11/15 08:56:18;;;;;;;9.40;5.50;;;;;;;21.53;60.09;101509.56;5090949;28;20121;-68
2021/11/15 08:58:46;;;;;;;8.82;5.03;;;;;;;21.53;60.03;101509.56;5092564;28;20134;-66
2021/11/15 09:01:15;;;;;;;8.98;4.45;;;;;;;21.61;59.98;101502.28;5091064;27;20044;-66
2021/11/15 09:03:44;;;;;;;7.15;4.75;;;;;;;21.71;60.02;101498.53;5090013;28;20070;-66
2021/11/15 09:06:14;;;;;;;8.85;5.38;;;;;;;21.81;59.92;101500.09;5099131;27;20094;-66
2021/11/15 09:08:43;;;;;;;9.63;5.35;;;;;;;21.71;58.43;101505.69;5087333;28;20051;-66
2021/11/15 09:11:12;;;;;;;10.55;5.38;;;;;;;21.73;58.83;101501.16;5083426;28;20040;-66
2021/11/15 09:13:42;;;;;;;8.45;5.03;;;;;;;21.79;58.76;101498.38;5072555;28;20507;-66
2021/11/15 09:16:11;;;;;;;9.75;4.80;;;;;;;21.81;58.79;101496.53;5090591;28;20051;-66
2021/11/15 09:18:39;;;;;;;10.65;4.70;;;;;;;21.85;58.73;101496.47;5089440;28;20499;-66
2021/11/15 09:21:08;;;;;;;10.77;4.53;;;;;;;21.85;58.48;101492.88;5087464;28;20607;-66
2021/11/15 09:23:40;;;;;;;12.30;5.15;;;;;;;21.81;58.09;101492.03;5089039;28;20040;-66
2021/11/15 09:26:08;;;;;;;9.73;4.85;;;;;;;21.84;58.16;101483.03;5090645;28;20048;-66
2021/11/15 09:28:36;;;;;;;8.07;4.65;;;;;;;21.78;58.37;101488.53;5090886;28;20050;-66
2021/11/15 09:31:04;;;;;;;7.65;4.85;;;;;;;21.68;58.08;101486.94;5089260;28;20119;-66
2021/11/15 09:33:32;;;;;;;9.93;5.32;;;;;;;21.56;57.91;101493.41;5069182;28;20098;-66
2021/11/15 09:36:00;;;;;;;8.27;4.65;;;;;;;21.51;57.93;101484.56;5085491;28;21669;-66
2021/11/15 09:38:29;;;;;;;8.07;4.43;;;;;;;21.53;57.96;101474.66;5083440;28;20543;-65
2021/11/15 09:41:02;;;;;;;7.97;4.75;;;;;;;21.58;58.31;101474.59;5086122;28;20407;-66
2021/11/15 09:43:35;;;;;;;6.88;4.03;;;;;;;21.61;58.11;101472.72;5070269;28;20471;-66
2021/11/15 09:46:04;;;;;;;7.07;5.57;;;;;;;21.53;57.64;101476.47;5088981;28;20055;-66
2021/11/15 09:48:33;;;;;;;8.27;5.43;;;;;;;21.75;58.44;101478.72;5089333;28;20105;-66
2021/11/15 09:51:02;;;;;;;6.95;4.50;;;;;;;22.00;58.08;101478.28;5094592;27;20047;-66
2021/11/15 09:53:29;;;;;;;6.18;4.05;;;;;;;21.94;57.26;101472.97;5087839;28;20040;-67
2021/11/15 09:55:59;;;;;;;7.00;4.35;;;;;;;21.85;57.14;101469.59;5085890;28;20042;-66
2021/11/15 09:58:28;;;;;;;8.88;5.00;;;;;;;21.71;57.12;101466.25;5084324;28;20044;-66
2021/11/15 10:00:55;;;;;;;7.80;4.45;;;;;;;21.60;57.60;101459.28;5083082;28;20056;-66
2021/11/15 10:03:25;;;;;;;7.15;4.70;;;;;;;21.62;57.69;101461.06;5086553;28;20044;-66
2021/11/15 10:05:54;;;;;;;7.95;4.10;;;;;;;21.85;57.65;101449.88;5082308;28;20047;-66
2021/11/15 10:08:22;;;;;;;10.20;5.05;;;;;;;22.12;57.94;101457.38;5082009;28;20052;-66
2021/11/15 10:10:57;;;;;;;10.63;4.70;;;;;;;22.38;57.54;101446.09;5081159;28;20119;-66
2021/11/15 10:13:30;;;;;;;8.13;4.90;;;;;;;22.44;57.15;101439.69;5090767;28;20071;-66
2021/11/15 10:16:05;;;;;;;10.07;5.15;;;;;;;22.39;56.46;101438.88;5086435;28;20091;-66
2021/11/15 10:18:43;;;;;;;11.43;5.38;;;;;;;22.19;56.51;101431.25;5088790;28;20063;-66
2021/11/15 10:21:14;;;;;;;9.23;5.00;;;;;;;22.04;56.85;101431.59;5101443;28;20044;-66
2021/11/15 10:23:48;;;;;;;9.48;5.45;;;;;;;22.01;57.17;101428.94;5089117;28;20068;-66
2021/11/15 10:26:22;;;;;;;7.07;4.55;;;;;;;22.10;57.45;101432.34;5086795;28;20044;-66
2021/11/15 10:29:00;;;;;;;9.35;4.40;;;;;;;22.26;57.26;101420.31;5085586;28;20051;-66
2021/11/15 10:31:38;;;;;;;8.30;4.78;;;;;;;22.36;56.68;101421.03;5081087;28;20036;-66
2021/11/15 10:34:09;;;;;;;8.02;5.15;;;;;;;22.30;56.10;101423.84;5081066;28;20071;-66
2021/11/15 10:36:59;;;;;;;7.85;5.05;;;;;;;22.35;56.31;101413.88;5083951;28;20040;-66
2021/11/15 10:39:30;;;;;;;6.85;5.05;;;;;;;22.39;56.40;101418.25;5083849;28;20471;-66
2021/11/15 10:42:05;;;;;;;9.25;3.78;;;;;;;22.47;56.08;101410.00;5084532;28;20113;-66
2021/11/15 10:44:37;;;;;;;9.05;4.57;;;;;;;22.38;55.99;101413.81;5083388;28;20049;-66
2021/11/15 10:47:05;;;;;;;8.15;5.03;;;;;;;22.23;56.21;101408.75;5079101;28;20395;-66
2021/11/15 10:49:34;;;;;;;10.18;5.30;;;;;;;22.06;56.38;101409.09;5082290;28;20074;-66
2021/11/15 10:52:05;;;;;;;10.68;5.53;;;;;;;21.95;56.68;101408.44;5086718;28;20032;-67
2021/11/15 10:54:49;;;;;;;9.10;5.25;;;;;;;21.84;56.94;101403.28;5080380;28;20048;-66
2021/11/15 10:57:39;;;;;;;7.63;5.13;;;;;;;21.67;56.93;101400.03;5088202;28;20070;-65
2021/11/15 11:00:19;;;;;;;11.02;5.57;;;;;;;21.57;57.65;101397.56;5079338;28;20036;-66
2021/11/15 11:02:49;;;;;;;7.60;4.85;;;;;;;21.65;58.29;101387.56;5089741;28;20044;-66
2021/11/15 11:05:18;;;;;;;7.15;4.60;;;;;;;21.77;58.24;101393.56;5092388;28;20094;-66
2021/11/15 11:07:48;;;;;;;9.70;5.10;;;;;;;21.79;57.95;101388.16;5089458;27;20561;-65
2021/11/15 11:10:17;;;;;;;8.05;5.28;;;;;;;21.67;57.72;101397.34;5100980;28;20562;-66
2021/11/15 11:12:56;;;;;;;6.90;4.25;;;;;;;21.56;57.82;101391.31;5108368;28;20040;-66
2021/11/15 11:15:33;;;;;;;6.57;4.88;;;;;;;21.52;57.82;101389.59;5096643;27;20689;-66
2021/11/15 11:18:06;;;;;;;9.32;5.28;;;;;;;21.45;58.13;101388.84;5101118;27;20051;-66
2021/11/15 11:21:13;;;;;;;9.00;5.20;;;;;;;21.45;58.22;101387.94;5120916;27;20093;-66
2021/11/15 11:26:43;;;;;;;8.15;4.40;;;;;;;21.73;57.94;101385.56;5065036;28;20140;-66
2021/11/15 11:29:15;;;;;;;7.35;4.30;;;;;;;21.81;57.13;101380.94;5081792;28;20226;-66
2021/11/15 11:31:48;;;;;;;7.88;4.05;;;;;;;21.86;56.93;101369.16;5079504;28;20153;-66
2021/11/15 11:34:17;;;;;;;8.57;4.63;;;;;;;21.76;56.43;101370.28;5083554;28;20051;-66